Craig, CO

01:52 PM MDT am 31. Oktober 2014 (GMT -0600)
Craig airport | Change Station
CLOSE
Current Station
Persönliche Wetterstationen
Location: Craig, CO
Höhe: 6207 ft
Wetterstationen in der Umgebung
aktive Warnung: Special Statement

Höhe 6207 ft 40.49 °N, 107.51 °W | Updated 21 minutes ago

Teils Wolkig
Teils Wolkig
63.4 °F
gefühlte 63.4 °F
N
0.0
Wind Wechselnd Wind aus Ost-Nordost
Gusts 3.0 mph

Heute
Max. -- | schwach -- °F
--% Regenrisiko
Gestern
Max. -- | schwach -- °F
Precip. -- inch
7:39 AM 6:07 PM
Erstes Viertel, 58% visible
Druck 30.10 inch
Sichtweite 10.0 Meilen
Wolken Heiter
Taupunkt 35 °F
Feuchtigkeit 35%
Regen 0.00 inch
Schneehöhe Nicht verfügbar..
UV 5 von 12
Pollen 1.40 von 12
Luftqualität Nicht verfügbar..
Flu Activity Nicht verfügbar..
METAR KCAG 311853Z AUTO 05004KT 10SM CLR 18/M03 A3016 RMK AO2 SLP192 T01781028

More Conditions Fewer Conditions

Druck 30.10 inch
Sichtweite 10.0 Meilen
Wolken Heiter
Taupunkt 35 °F
Feuchtigkeit 35%
Regen 0.00 inch
Schneehöhe Nicht verfügbar..
UV 5 von 12
Pollen 1.40 von 12
Luftqualität Nicht verfügbar..
Flu Activity Nicht verfügbar..
METAR KCAG 311853Z AUTO 05004KT 10SM CLR 18/M03 A3016 RMK AO2 SLP192 T01781028

More Conditions Fewer Conditions

10-Day Weather Forecast

Almanac

Astronomie

Oct. 31, 2014 Aufgang Untergang
Genaue Zeit
Bürgerliche Dämmerung
Nautische Dämmerung
Astronomische Dämmerung
Mond
Länge des sichtbaren Lichts
Tageslänge
Tomorrow will be .
, % of the Moon is Illuminated

Heutige Rekorde

State Highs State Lows

Community

WunderPhotos

Upload Photos

1,766,711 Fotos hochgeladen!

WunderBlogs® & News

Nearby

Luftqualität

  Luftqualität LQ Index Schadstoff
Not available.

Schneehöhe

Station Depth Höhe

Erdbebenaktivität

Stadt Distance Mag. Time & Date
Minimum magnitude displayed is 2.5.

küstennahe Wassertemperaturen

Ort Temperatur

Wetterstationen in der Umgebung